sensor_id;sensor_type;location;lat;lon;timestamp;P1;durP1;ratioP1;P2;durP2;ratioP2
4311;SDS011;2169;49.086;9.284;2023-04-25T00:00:30;2.10;;;1.83;;
4311;SDS011;2169;49.086;9.284;2023-04-25T00:02:57;8.03;;;2.67;;
4311;SDS011;2169;49.086;9.284;2023-04-25T00:05:25;2.23;;;2.13;;
4311;SDS011;2169;49.086;9.284;2023-04-25T00:07:53;3.00;;;2.80;;
4311;SDS011;2169;49.086;9.284;2023-04-25T00:10:21;2.20;;;2.10;;
4311;SDS011;2169;49.086;9.284;2023-04-25T00:12:48;2.73;;;2.53;;
4311;SDS011;2169;49.086;9.284;2023-04-25T00:15:15;2.00;;;1.83;;
4311;SDS011;2169;49.086;9.284;2023-04-25T00:17:42;3.30;;;3.00;;
4311;SDS011;2169;49.086;9.284;2023-04-25T00:20:11;3.13;;;2.80;;
4311;SDS011;2169;49.086;9.284;2023-04-25T00:22:38;2.10;;;2.00;;
4311;SDS011;2169;49.086;9.284;2023-04-25T00:25:07;1.83;;;1.73;;
4311;SDS011;2169;49.086;9.284;2023-04-25T00:27:34;3.30;;;2.70;;
4311;SDS011;2169;49.086;9.284;2023-04-25T00:30:00;11.83;;;2.60;;
4311;SDS011;2169;49.086;9.284;2023-04-25T00:32:27;3.40;;;2.43;;
4311;SDS011;2169;49.086;9.284;2023-04-25T00:34:54;3.50;;;3.00;;
4311;SDS011;2169;49.086;9.284;2023-04-25T00:37:22;2.20;;;2.10;;
4311;SDS011;2169;49.086;9.284;2023-04-25T00:39:49;3.53;;;2.90;;
4311;SDS011;2169;49.086;9.284;2023-04-25T00:42:20;2.40;;;2.30;;
4311;SDS011;2169;49.086;9.284;2023-04-25T00:44:47;1.93;;;1.83;;
4311;SDS011;2169;49.086;9.284;2023-04-25T00:47:15;2.20;;;2.10;;
4311;SDS011;2169;49.086;9.284;2023-04-25T00:49:42;2.93;;;2.70;;
4311;SDS011;2169;49.086;9.284;2023-04-25T00:52:09;2.17;;;2.07;;
4311;SDS011;2169;49.086;9.284;2023-04-25T00:54:36;2.00;;;1.90;;
4311;SDS011;2169;49.086;9.284;2023-04-25T00:57:04;3.10;;;2.30;;
4311;SDS011;2169;49.086;9.284;2023-04-25T00:59:32;2.63;;;2.30;;
4311;SDS011;2169;49.086;9.284;2023-04-25T01:02:00;2.23;;;2.00;;
4311;SDS011;2169;49.086;9.284;2023-04-25T01:04:27;2.70;;;2.50;;
4311;SDS011;2169;49.086;9.284;2023-04-25T01:06:54;2.33;;;2.20;;
4311;SDS011;2169;49.086;9.284;2023-04-25T01:09:22;3.00;;;2.47;;
4311;SDS011;2169;49.086;9.284;2023-04-25T01:11:49;2.60;;;2.07;;
4311;SDS011;2169;49.086;9.284;2023-04-25T01:14:16;2.33;;;2.17;;
4311;SDS011;2169;49.086;9.284;2023-04-25T01:16:44;4.50;;;2.70;;
4311;SDS011;2169;49.086;9.284;2023-04-25T01:19:11;5.23;;;3.30;;
4311;SDS011;2169;49.086;9.284;2023-04-25T01:21:44;1.97;;;1.87;;
4311;SDS011;2169;49.086;9.284;2023-04-25T01:24:11;4.17;;;2.70;;
4311;SDS011;2169;49.086;9.284;2023-04-25T01:26:38;2.93;;;2.73;;
4311;SDS011;2169;49.086;9.284;2023-04-25T01:29:09;3.50;;;2.20;;
4311;SDS011;2169;49.086;9.284;2023-04-25T01:31:36;2.00;;;1.90;;
4311;SDS011;2169;49.086;9.284;2023-04-25T01:34:04;2.70;;;2.50;;
4311;SDS011;2169;49.086;9.284;2023-04-25T01:36:31;3.77;;;3.37;;
4311;SDS011;2169;49.086;9.284;2023-04-25T01:38:59;10.93;;;2.40;;
4311;SDS011;2169;49.086;9.284;2023-04-25T01:41:27;1.83;;;1.70;;
4311;SDS011;2169;49.086;9.284;2023-04-25T01:43:54;3.10;;;2.90;;
4311;SDS011;2169;49.086;9.284;2023-04-25T01:46:21;2.27;;;2.17;;
4311;SDS011;2169;49.086;9.284;2023-04-25T01:48:48;2.70;;;1.77;;
4311;SDS011;2169;49.086;9.284;2023-04-25T01:51:15;2.50;;;1.77;;
4311;SDS011;2169;49.086;9.284;2023-04-25T01:53:42;1.20;;;1.10;;
4311;SDS011;2169;49.086;9.284;2023-04-25T01:56:11;1.63;;;1.50;;
4311;SDS011;2169;49.086;9.284;2023-04-25T01:58:38;2.93;;;2.60;;
4311;SDS011;2169;49.086;9.284;2023-04-25T02:01:05;2.90;;;1.87;;
4311;SDS011;2169;49.086;9.284;2023-04-25T02:03:32;2.97;;;2.67;;
4311;SDS011;2169;49.086;9.284;2023-04-25T02:05:59;2.37;;;2.20;;
4311;SDS011;2169;49.086;9.284;2023-04-25T02:08:26;2.87;;;2.67;;
4311;SDS011;2169;49.086;9.284;2023-04-25T02:10:53;2.83;;;2.60;;
4311;SDS011;2169;49.086;9.284;2023-04-25T02:13:21;2.40;;;2.23;;
4311;SDS011;2169;49.086;9.284;2023-04-25T02:15:48;2.13;;;2.03;;
4311;SDS011;2169;49.086;9.284;2023-04-25T02:18:15;3.57;;;3.37;;
4311;SDS011;2169;49.086;9.284;2023-04-25T02:20:42;4.33;;;2.50;;
4311;SDS011;2169;49.086;9.284;2023-04-25T02:23:09;3.07;;;2.77;;
4311;SDS011;2169;49.086;9.284;2023-04-25T02:25:36;2.40;;;2.13;;
4311;SDS011;2169;49.086;9.284;2023-04-25T02:28:03;2.77;;;2.27;;
4311;SDS011;2169;49.086;9.284;2023-04-25T02:30:31;2.30;;;2.10;;
4311;SDS011;2169;49.086;9.284;2023-04-25T02:32:58;5.37;;;3.30;;
4311;SDS011;2169;49.086;9.284;2023-04-25T02:35:25;5.63;;;2.70;;
4311;SDS011;2169;49.086;9.284;2023-04-25T02:37:52;2.40;;;2.20;;
4311;SDS011;2169;49.086;9.284;2023-04-25T02:40:19;3.23;;;2.30;;
4311;SDS011;2169;49.086;9.284;2023-04-25T02:42:46;3.80;;;2.30;;
4311;SDS011;2169;49.086;9.284;2023-04-25T02:45:13;3.10;;;2.90;;
4311;SDS011;2169;49.086;9.284;2023-04-25T02:47:41;3.60;;;2.60;;
4311;SDS011;2169;49.086;9.284;2023-04-25T02:50:08;2.23;;;2.13;;
4311;SDS011;2169;49.086;9.284;2023-04-25T02:52:35;2.63;;;2.43;;
4311;SDS011;2169;49.086;9.284;2023-04-25T02:55:02;4.73;;;2.90;;
4311;SDS011;2169;49.086;9.284;2023-04-25T02:57:29;2.53;;;2.30;;
4311;SDS011;2169;49.086;9.284;2023-04-25T02:59:56;3.50;;;3.20;;
4311;SDS011;2169;49.086;9.284;2023-04-25T03:02:23;16.37;;;3.93;;
4311;SDS011;2169;49.086;9.284;2023-04-25T03:04:51;6.10;;;3.13;;
4311;SDS011;2169;49.086;9.284;2023-04-25T03:07:18;2.47;;;2.27;;
4311;SDS011;2169;49.086;9.284;2023-04-25T03:09:45;3.40;;;2.63;;
4311;SDS011;2169;49.086;9.284;2023-04-25T03:12:12;2.57;;;2.43;;
4311;SDS011;2169;49.086;9.284;2023-04-25T03:14:39;15.03;;;2.77;;
4311;SDS011;2169;49.086;9.284;2023-04-25T03:17:06;8.40;;;3.27;;
4311;SDS011;2169;49.086;9.284;2023-04-25T03:19:33;2.17;;;2.07;;
4311;SDS011;2169;49.086;9.284;2023-04-25T03:22:01;4.87;;;2.97;;
4311;SDS011;2169;49.086;9.284;2023-04-25T03:24:28;2.77;;;2.47;;
4311;SDS011;2169;49.086;9.284;2023-04-25T03:26:55;3.73;;;3.30;;
4311;SDS011;2169;49.086;9.284;2023-04-25T03:29:22;4.50;;;2.53;;
4311;SDS011;2169;49.086;9.284;2023-04-25T03:31:51;2.50;;;2.40;;
4311;SDS011;2169;49.086;9.284;2023-04-25T03:34:18;4.97;;;3.87;;
4311;SDS011;2169;49.086;9.284;2023-04-25T03:36:46;5.93;;;2.50;;
4311;SDS011;2169;49.086;9.284;2023-04-25T03:39:15;1.90;;;1.80;;
4311;SDS011;2169;49.086;9.284;2023-04-25T03:41:41;2.30;;;2.20;;
4311;SDS011;2169;49.086;9.284;2023-04-25T03:44:08;2.20;;;2.10;;
4311;SDS011;2169;49.086;9.284;2023-04-25T03:46:35;2.90;;;2.63;;
4311;SDS011;2169;49.086;9.284;2023-04-25T03:49:02;4.63;;;1.57;;
4311;SDS011;2169;49.086;9.284;2023-04-25T03:51:29;3.47;;;2.70;;
4311;SDS011;2169;49.086;9.284;2023-04-25T03:53:56;2.93;;;2.83;;
4311;SDS011;2169;49.086;9.284;2023-04-25T03:56:25;2.23;;;2.03;;
4311;SDS011;2169;49.086;9.284;2023-04-25T03:58:51;2.93;;;2.70;;
4311;SDS011;2169;49.086;9.284;2023-04-25T04:01:20;4.03;;;3.73;;
4311;SDS011;2169;49.086;9.284;2023-04-25T04:03:47;2.30;;;2.10;;
4311;SDS011;2169;49.086;9.284;2023-04-25T04:06:13;2.13;;;2.03;;
4311;SDS011;2169;49.086;9.284;2023-04-25T04:08:41;5.57;;;4.60;;
4311;SDS011;2169;49.086;9.284;2023-04-25T04:11:08;7.47;;;3.00;;
4311;SDS011;2169;49.086;9.284;2023-04-25T04:13:37;2.20;;;2.10;;
4311;SDS011;2169;49.086;9.284;2023-04-25T04:16:04;1.73;;;1.63;;
4311;SDS011;2169;49.086;9.284;2023-04-25T04:18:31;2.43;;;2.23;;
4311;SDS011;2169;49.086;9.284;2023-04-25T04:20:59;5.13;;;3.13;;
4311;SDS011;2169;49.086;9.284;2023-04-25T04:23:25;3.57;;;2.83;;
4311;SDS011;2169;49.086;9.284;2023-04-25T04:25:53;2.20;;;2.00;;
4311;SDS011;2169;49.086;9.284;2023-04-25T04:28:21;3.30;;;3.10;;
4311;SDS011;2169;49.086;9.284;2023-04-25T04:30:50;2.80;;;2.43;;
4311;SDS011;2169;49.086;9.284;2023-04-25T04:33:17;2.83;;;2.47;;
4311;SDS011;2169;49.086;9.284;2023-04-25T04:35:45;3.17;;;2.97;;
4311;SDS011;2169;49.086;9.284;2023-04-25T04:38:13;3.60;;;3.30;;
4311;SDS011;2169;49.086;9.284;2023-04-25T04:40:43;2.97;;;2.80;;
4311;SDS011;2169;49.086;9.284;2023-04-25T04:43:11;4.20;;;2.93;;
4311;SDS011;2169;49.086;9.284;2023-04-25T04:45:38;4.87;;;3.07;;
4311;SDS011;2169;49.086;9.284;2023-04-25T04:48:06;3.90;;;2.17;;
4311;SDS011;2169;49.086;9.284;2023-04-25T04:50:33;3.47;;;3.10;;
4311;SDS011;2169;49.086;9.284;2023-04-25T04:53:22;3.00;;;2.80;;
4311;SDS011;2169;49.086;9.284;2023-04-25T04:56:05;2.93;;;2.70;;
4311;SDS011;2169;49.086;9.284;2023-04-25T04:58:32;3.43;;;3.10;;
4311;SDS011;2169;49.086;9.284;2023-04-25T05:01:00;3.10;;;2.63;;
4311;SDS011;2169;49.086;9.284;2023-04-25T05:03:29;4.63;;;3.00;;
4311;SDS011;2169;49.086;9.284;2023-04-25T05:05:56;4.90;;;3.70;;
4311;SDS011;2169;49.086;9.284;2023-04-25T05:08:23;3.50;;;3.20;;
4311;SDS011;2169;49.086;9.284;2023-04-25T05:10:50;7.43;;;3.93;;
4311;SDS011;2169;49.086;9.284;2023-04-25T05:13:17;2.20;;;1.97;;
4311;SDS011;2169;49.086;9.284;2023-04-25T05:15:44;5.83;;;3.70;;
4311;SDS011;2169;49.086;9.284;2023-04-25T05:18:11;5.60;;;3.60;;
4311;SDS011;2169;49.086;9.284;2023-04-25T05:20:39;4.17;;;3.70;;
4311;SDS011;2169;49.086;9.284;2023-04-25T05:23:06;4.23;;;3.60;;
4311;SDS011;2169;49.086;9.284;2023-04-25T05:25:33;7.10;;;3.40;;
4311;SDS011;2169;49.086;9.284;2023-04-25T05:28:00;3.63;;;2.83;;
4311;SDS011;2169;49.086;9.284;2023-04-25T05:30:27;3.70;;;3.33;;
4311;SDS011;2169;49.086;9.284;2023-04-25T05:32:54;9.63;;;4.20;;
4311;SDS011;2169;49.086;9.284;2023-04-25T05:35:21;2.50;;;2.33;;
4311;SDS011;2169;49.086;9.284;2023-04-25T05:37:49;2.83;;;2.60;;
4311;SDS011;2169;49.086;9.284;2023-04-25T05:40:16;4.23;;;3.93;;
4311;SDS011;2169;49.086;9.284;2023-04-25T05:42:43;6.53;;;3.73;;
4311;SDS011;2169;49.086;9.284;2023-04-25T05:45:11;4.23;;;2.93;;
4311;SDS011;2169;49.086;9.284;2023-04-25T05:47:38;3.93;;;3.40;;
4311;SDS011;2169;49.086;9.284;2023-04-25T05:50:06;3.90;;;3.50;;
4311;SDS011;2169;49.086;9.284;2023-04-25T05:52:34;2.50;;;2.40;;
4311;SDS011;2169;49.086;9.284;2023-04-25T05:55:03;20.30;;;3.40;;
4311;SDS011;2169;49.086;9.284;2023-04-25T05:57:31;3.50;;;3.20;;
4311;SDS011;2169;49.086;9.284;2023-04-25T06:00:13;3.73;;;3.43;;
4311;SDS011;2169;49.086;9.284;2023-04-25T06:02:41;3.83;;;3.53;;
4311;SDS011;2169;49.086;9.284;2023-04-25T06:05:08;3.67;;;3.37;;
4311;SDS011;2169;49.086;9.284;2023-04-25T06:07:35;2.97;;;2.57;;
4311;SDS011;2169;49.086;9.284;2023-04-25T06:10:05;8.77;;;5.00;;
4311;SDS011;2169;49.086;9.284;2023-04-25T06:12:33;5.73;;;3.20;;
4311;SDS011;2169;49.086;9.284;2023-04-25T06:15:00;3.93;;;3.27;;
4311;SDS011;2169;49.086;9.284;2023-04-25T06:17:27;5.20;;;3.40;;
4311;SDS011;2169;49.086;9.284;2023-04-25T06:19:54;2.70;;;2.50;;
4311;SDS011;2169;49.086;9.284;2023-04-25T06:22:21;8.30;;;3.53;;
4311;SDS011;2169;49.086;9.284;2023-04-25T06:24:48;8.87;;;3.90;;
4311;SDS011;2169;49.086;9.284;2023-04-25T06:27:16;8.37;;;3.80;;
4311;SDS011;2169;49.086;9.284;2023-04-25T06:29:43;3.10;;;2.80;;
4311;SDS011;2169;49.086;9.284;2023-04-25T06:32:10;2.93;;;2.60;;
4311;SDS011;2169;49.086;9.284;2023-04-25T06:34:37;4.30;;;3.50;;
4311;SDS011;2169;49.086;9.284;2023-04-25T06:37:04;3.90;;;3.60;;
4311;SDS011;2169;49.086;9.284;2023-04-25T06:39:31;8.87;;;3.57;;
4311;SDS011;2169;49.086;9.284;2023-04-25T06:41:58;4.70;;;2.97;;
4311;SDS011;2169;49.086;9.284;2023-04-25T06:44:26;6.30;;;3.40;;
4311;SDS011;2169;49.086;9.284;2023-04-25T06:46:54;3.00;;;2.33;;
4311;SDS011;2169;49.086;9.284;2023-04-25T06:49:21;4.90;;;2.07;;
4311;SDS011;2169;49.086;9.284;2023-04-25T06:51:48;6.90;;;3.43;;
4311;SDS011;2169;49.086;9.284;2023-04-25T06:54:15;3.33;;;3.03;;
4311;SDS011;2169;49.086;9.284;2023-04-25T06:56:42;5.20;;;4.20;;
4311;SDS011;2169;49.086;9.284;2023-04-25T06:59:09;5.37;;;3.63;;
4311;SDS011;2169;49.086;9.284;2023-04-25T07:01:38;4.43;;;4.00;;
4311;SDS011;2169;49.086;9.284;2023-04-25T07:04:05;4.23;;;3.50;;
4311;SDS011;2169;49.086;9.284;2023-04-25T07:06:33;5.73;;;3.53;;
4311;SDS011;2169;49.086;9.284;2023-04-25T07:09:03;4.20;;;3.50;;
4311;SDS011;2169;49.086;9.284;2023-04-25T07:11:30;7.10;;;5.43;;
4311;SDS011;2169;49.086;9.284;2023-04-25T07:13:57;7.53;;;5.33;;
4311;SDS011;2169;49.086;9.284;2023-04-25T07:16:24;6.50;;;4.63;;
4311;SDS011;2169;49.086;9.284;2023-04-25T07:18:53;6.23;;;4.73;;
4311;SDS011;2169;49.086;9.284;2023-04-25T07:21:20;4.90;;;4.00;;
4311;SDS011;2169;49.086;9.284;2023-04-25T07:23:47;5.60;;;5.10;;
4311;SDS011;2169;49.086;9.284;2023-04-25T07:26:14;3.40;;;3.20;;
4311;SDS011;2169;49.086;9.284;2023-04-25T07:28:41;4.73;;;3.70;;
4311;SDS011;2169;49.086;9.284;2023-04-25T07:31:09;6.83;;;5.60;;
4311;SDS011;2169;49.086;9.284;2023-04-25T07:33:36;7.10;;;5.17;;
4311;SDS011;2169;49.086;9.284;2023-04-25T07:36:08;6.00;;;5.40;;
4311;SDS011;2169;49.086;9.284;2023-04-25T07:38:35;7.63;;;4.50;;
4311;SDS011;2169;49.086;9.284;2023-04-25T07:41:02;7.97;;;3.90;;
4311;SDS011;2169;49.086;9.284;2023-04-25T07:43:29;6.43;;;5.10;;
4311;SDS011;2169;49.086;9.284;2023-04-25T07:45:56;6.43;;;4.77;;
4311;SDS011;2169;49.086;9.284;2023-04-25T07:48:23;4.50;;;3.47;;
4311;SDS011;2169;49.086;9.284;2023-04-25T07:50:51;4.57;;;3.90;;
4311;SDS011;2169;49.086;9.284;2023-04-25T07:53:22;6.20;;;4.70;;
4311;SDS011;2169;49.086;9.284;2023-04-25T07:55:48;5.27;;;4.67;;
4311;SDS011;2169;49.086;9.284;2023-04-25T07:58:17;10.53;;;4.23;;
4311;SDS011;2169;49.086;9.284;2023-04-25T08:00:46;5.97;;;4.23;;
4311;SDS011;2169;49.086;9.284;2023-04-25T08:03:13;9.50;;;3.93;;
4311;SDS011;2169;49.086;9.284;2023-04-25T08:05:41;6.07;;;4.80;;
4311;SDS011;2169;49.086;9.284;2023-04-25T08:08:08;5.57;;;5.10;;
4311;SDS011;2169;49.086;9.284;2023-04-25T08:10:37;5.90;;;5.17;;
4311;SDS011;2169;49.086;9.284;2023-04-25T08:13:04;8.50;;;5.33;;
4311;SDS011;2169;49.086;9.284;2023-04-25T08:15:31;6.20;;;5.60;;
4311;SDS011;2169;49.086;9.284;2023-04-25T08:17:58;5.87;;;4.23;;
4311;SDS011;2169;49.086;9.284;2023-04-25T08:20:25;5.30;;;4.80;;
4311;SDS011;2169;49.086;9.284;2023-04-25T08:23:29;4.77;;;4.37;;
4311;SDS011;2169;49.086;9.284;2023-04-25T08:25:58;4.67;;;4.07;;
4311;SDS011;2169;49.086;9.284;2023-04-25T08:28:25;6.50;;;5.10;;
4311;SDS011;2169;49.086;9.284;2023-04-25T08:30:51;8.30;;;4.83;;
4311;SDS011;2169;49.086;9.284;2023-04-25T08:33:19;4.57;;;4.17;;
4311;SDS011;2169;49.086;9.284;2023-04-25T08:35:46;5.53;;;5.03;;
4311;SDS011;2169;49.086;9.284;2023-04-25T08:38:13;5.17;;;4.67;;
4311;SDS011;2169;49.086;9.284;2023-04-25T08:40:40;7.73;;;5.10;;
4311;SDS011;2169;49.086;9.284;2023-04-25T08:43:10;5.87;;;5.37;;
4311;SDS011;2169;49.086;9.284;2023-04-25T08:45:40;5.37;;;4.87;;
4311;SDS011;2169;49.086;9.284;2023-04-25T08:48:08;13.43;;;4.80;;
4311;SDS011;2169;49.086;9.284;2023-04-25T08:50:38;6.30;;;5.70;;
4311;SDS011;2169;49.086;9.284;2023-04-25T08:53:06;13.93;;;5.20;;
4311;SDS011;2169;49.086;9.284;2023-04-25T08:55:43;4.50;;;4.10;;
4311;SDS011;2169;49.086;9.284;2023-04-25T08:58:12;7.70;;;5.87;;
4311;SDS011;2169;49.086;9.284;2023-04-25T09:00:40;10.07;;;5.60;;
4311;SDS011;2169;49.086;9.284;2023-04-25T09:03:07;7.73;;;6.03;;
4311;SDS011;2169;49.086;9.284;2023-04-25T09:05:34;5.00;;;4.60;;
4311;SDS011;2169;49.086;9.284;2023-04-25T09:08:01;5.33;;;3.70;;
4311;SDS011;2169;49.086;9.284;2023-04-25T09:10:28;3.83;;;3.60;;
4311;SDS011;2169;49.086;9.284;2023-04-25T09:13:03;7.17;;;5.13;;
4311;SDS011;2169;49.086;9.284;2023-04-25T09:15:35;5.63;;;5.07;;
4311;SDS011;2169;49.086;9.284;2023-04-25T09:18:13;8.00;;;5.90;;
4311;SDS011;2169;49.086;9.284;2023-04-25T09:20:47;4.80;;;4.50;;
4311;SDS011;2169;49.086;9.284;2023-04-25T09:23:14;6.80;;;5.03;;
4311;SDS011;2169;49.086;9.284;2023-04-25T09:25:41;9.70;;;6.23;;
4311;SDS011;2169;49.086;9.284;2023-04-25T09:28:08;9.90;;;5.10;;
4311;SDS011;2169;49.086;9.284;2023-04-25T09:30:38;8.73;;;3.80;;
4311;SDS011;2169;49.086;9.284;2023-04-25T09:33:05;4.83;;;3.37;;
4311;SDS011;2169;49.086;9.284;2023-04-25T09:35:36;5.80;;;3.90;;
4311;SDS011;2169;49.086;9.284;2023-04-25T09:38:08;4.53;;;3.07;;
4311;SDS011;2169;49.086;9.284;2023-04-25T09:40:40;3.63;;;3.00;;
4311;SDS011;2169;49.086;9.284;2023-04-25T09:43:10;9.87;;;3.00;;
4311;SDS011;2169;49.086;9.284;2023-04-25T09:45:46;3.17;;;2.97;;
4311;SDS011;2169;49.086;9.284;2023-04-25T09:48:16;7.63;;;3.47;;
4311;SDS011;2169;49.086;9.284;2023-04-25T09:50:45;3.07;;;2.80;;
4311;SDS011;2169;49.086;9.284;2023-04-25T09:53:12;3.20;;;2.80;;
4311;SDS011;2169;49.086;9.284;2023-04-25T09:55:39;3.10;;;3.00;;
4311;SDS011;2169;49.086;9.284;2023-04-25T09:58:09;2.70;;;2.53;;
4311;SDS011;2169;49.086;9.284;2023-04-25T10:00:41;3.03;;;2.83;;
4311;SDS011;2169;49.086;9.284;2023-04-25T10:03:09;5.40;;;4.13;;
4311;SDS011;2169;49.086;9.284;2023-04-25T10:05:38;6.13;;;3.53;;
4311;SDS011;2169;49.086;9.284;2023-04-25T10:08:05;3.10;;;2.90;;
4311;SDS011;2169;49.086;9.284;2023-04-25T10:10:34;3.77;;;3.47;;
4311;SDS011;2169;49.086;9.284;2023-04-25T10:13:03;7.90;;;5.67;;
4311;SDS011;2169;49.086;9.284;2023-04-25T10:15:33;6.80;;;4.67;;
4311;SDS011;2169;49.086;9.284;2023-04-25T10:18:01;5.43;;;4.17;;
4311;SDS011;2169;49.086;9.284;2023-04-25T10:20:30;5.53;;;5.03;;
4311;SDS011;2169;49.086;9.284;2023-04-25T10:23:01;7.00;;;4.80;;
4311;SDS011;2169;49.086;9.284;2023-04-25T10:25:33;8.27;;;4.80;;
4311;SDS011;2169;49.086;9.284;2023-04-25T10:28:00;9.40;;;4.60;;
4311;SDS011;2169;49.086;9.284;2023-04-25T10:30:31;6.23;;;4.97;;
4311;SDS011;2169;49.086;9.284;2023-04-25T10:33:00;6.23;;;5.63;;
4311;SDS011;2169;49.086;9.284;2023-04-25T10:35:27;5.47;;;4.60;;
4311;SDS011;2169;49.086;9.284;2023-04-25T10:37:58;8.77;;;5.73;;
4311;SDS011;2169;49.086;9.284;2023-04-25T10:40:26;9.73;;;6.10;;
4311;SDS011;2169;49.086;9.284;2023-04-25T10:42:53;4.47;;;4.03;;
4311;SDS011;2169;49.086;9.284;2023-04-25T10:45:21;5.37;;;4.83;;
4311;SDS011;2169;49.086;9.284;2023-04-25T10:47:48;5.10;;;4.17;;
4311;SDS011;2169;49.086;9.284;2023-04-25T10:50:15;4.17;;;3.90;;
4311;SDS011;2169;49.086;9.284;2023-04-25T10:52:44;3.83;;;3.50;;
4311;SDS011;2169;49.086;9.284;2023-04-25T10:55:12;3.97;;;3.57;;
4311;SDS011;2169;49.086;9.284;2023-04-25T10:57:40;9.90;;;4.07;;
4311;SDS011;2169;49.086;9.284;2023-04-25T11:00:10;5.37;;;4.97;;
4311;SDS011;2169;49.086;9.284;2023-04-25T11:02:43;4.13;;;3.80;;
4311;SDS011;2169;49.086;9.284;2023-04-25T11:05:16;4.17;;;3.07;;
4311;SDS011;2169;49.086;9.284;2023-04-25T11:07:50;5.43;;;3.87;;
4311;SDS011;2169;49.086;9.284;2023-04-25T11:10:19;6.17;;;5.40;;
4311;SDS011;2169;49.086;9.284;2023-04-25T11:12:46;5.93;;;5.50;;
4311;SDS011;2169;49.086;9.284;2023-04-25T11:15:13;8.97;;;5.03;;
4311;SDS011;2169;49.086;9.284;2023-04-25T11:17:41;7.63;;;5.90;;
4311;SDS011;2169;49.086;9.284;2023-04-25T11:20:09;11.63;;;6.53;;
4311;SDS011;2169;49.086;9.284;2023-04-25T11:22:38;5.47;;;5.07;;
4311;SDS011;2169;49.086;9.284;2023-04-25T11:25:08;8.43;;;6.13;;
4311;SDS011;2169;49.086;9.284;2023-04-25T11:27:48;12.70;;;7.27;;
4311;SDS011;2169;49.086;9.284;2023-04-25T11:30:16;12.50;;;6.20;;
4311;SDS011;2169;49.086;9.284;2023-04-25T11:32:44;6.67;;;5.20;;
4311;SDS011;2169;49.086;9.284;2023-04-25T11:35:11;5.73;;;5.23;;
4311;SDS011;2169;49.086;9.284;2023-04-25T11:37:39;5.47;;;4.97;;
4311;SDS011;2169;49.086;9.284;2023-04-25T11:40:09;6.57;;;4.87;;
4311;SDS011;2169;49.086;9.284;2023-04-25T11:42:38;12.00;;;5.27;;
4311;SDS011;2169;49.086;9.284;2023-04-25T11:45:05;10.83;;;5.20;;
4311;SDS011;2169;49.086;9.284;2023-04-25T11:47:33;4.80;;;3.53;;
4311;SDS011;2169;49.086;9.284;2023-04-25T11:50:00;6.17;;;5.67;;
4311;SDS011;2169;49.086;9.284;2023-04-25T11:52:35;3.73;;;3.53;;
4311;SDS011;2169;49.086;9.284;2023-04-25T11:55:06;5.07;;;4.27;;
4311;SDS011;2169;49.086;9.284;2023-04-25T11:57:37;4.07;;;3.77;;
4311;SDS011;2169;49.086;9.284;2023-04-25T12:00:06;3.50;;;3.20;;
4311;SDS011;2169;49.086;9.284;2023-04-25T12:02:40;5.10;;;4.03;;
4311;SDS011;2169;49.086;9.284;2023-04-25T12:05:08;5.03;;;4.63;;
4311;SDS011;2169;49.086;9.284;2023-04-25T12:07:35;5.20;;;4.50;;
4311;SDS011;2169;49.086;9.284;2023-04-25T12:10:04;4.27;;;3.90;;
4311;SDS011;2169;49.086;9.284;2023-04-25T12:12:34;12.67;;;4.57;;
4311;SDS011;2169;49.086;9.284;2023-04-25T12:15:09;4.70;;;3.93;;
4311;SDS011;2169;49.086;9.284;2023-04-25T12:17:38;7.80;;;4.83;;
4311;SDS011;2169;49.086;9.284;2023-04-25T12:20:05;16.03;;;6.00;;
4311;SDS011;2169;49.086;9.284;2023-04-25T12:22:35;8.43;;;4.53;;
4311;SDS011;2169;49.086;9.284;2023-04-25T12:25:02;11.57;;;4.90;;
4311;SDS011;2169;49.086;9.284;2023-04-25T12:27:30;7.80;;;5.63;;
4311;SDS011;2169;49.086;9.284;2023-04-25T12:30:00;4.40;;;3.77;;
4311;SDS011;2169;49.086;9.284;2023-04-25T12:32:27;9.20;;;5.13;;
4311;SDS011;2169;49.086;9.284;2023-04-25T12:34:54;9.77;;;4.30;;
4311;SDS011;2169;49.086;9.284;2023-04-25T12:37:21;10.13;;;5.20;;
4311;SDS011;2169;49.086;9.284;2023-04-25T12:39:48;4.27;;;3.70;;
4311;SDS011;2169;49.086;9.284;2023-04-25T12:42:15;11.40;;;5.07;;
4311;SDS011;2169;49.086;9.284;2023-04-25T12:44:42;6.20;;;5.63;;
4311;SDS011;2169;49.086;9.284;2023-04-25T12:47:11;6.63;;;5.67;;
4311;SDS011;2169;49.086;9.284;2023-04-25T12:49:38;11.23;;;6.80;;
4311;SDS011;2169;49.086;9.284;2023-04-25T12:52:05;16.90;;;7.07;;
4311;SDS011;2169;49.086;9.284;2023-04-25T12:54:32;13.73;;;5.83;;
4311;SDS011;2169;49.086;9.284;2023-04-25T12:56:59;16.33;;;6.80;;
4311;SDS011;2169;49.086;9.284;2023-04-25T12:59:27;18.17;;;5.73;;
4311;SDS011;2169;49.086;9.284;2023-04-25T13:01:54;11.63;;;6.73;;
4311;SDS011;2169;49.086;9.284;2023-04-25T13:04:23;10.13;;;6.90;;
4311;SDS011;2169;49.086;9.284;2023-04-25T13:06:50;9.20;;;6.73;;
4311;SDS011;2169;49.086;9.284;2023-04-25T13:09:17;13.00;;;6.73;;
4311;SDS011;2169;49.086;9.284;2023-04-25T13:11:44;13.67;;;6.83;;
4311;SDS011;2169;49.086;9.284;2023-04-25T13:14:11;11.20;;;6.47;;
4311;SDS011;2169;49.086;9.284;2023-04-25T13:16:37;9.13;;;6.00;;
4311;SDS011;2169;49.086;9.284;2023-04-25T13:19:04;7.00;;;4.37;;
4311;SDS011;2169;49.086;9.284;2023-04-25T13:21:34;5.00;;;4.03;;
4311;SDS011;2169;49.086;9.284;2023-04-25T13:24:01;7.33;;;5.60;;
4311;SDS011;2169;49.086;9.284;2023-04-25T13:26:28;6.10;;;5.07;;
4311;SDS011;2169;49.086;9.284;2023-04-25T13:28:55;11.13;;;5.07;;
4311;SDS011;2169;49.086;9.284;2023-04-25T13:31:22;8.50;;;4.50;;
4311;SDS011;2169;49.086;9.284;2023-04-25T13:33:49;7.83;;;3.93;;
4311;SDS011;2169;49.086;9.284;2023-04-25T13:36:16;9.33;;;5.97;;
4311;SDS011;2169;49.086;9.284;2023-04-25T13:38:44;12.43;;;4.30;;
4311;SDS011;2169;49.086;9.284;2023-04-25T13:41:12;5.73;;;4.40;;
4311;SDS011;2169;49.086;9.284;2023-04-25T13:43:43;11.33;;;5.57;;
4311;SDS011;2169;49.086;9.284;2023-04-25T13:46:11;3.87;;;3.57;;
4311;SDS011;2169;49.086;9.284;2023-04-25T13:48:40;5.27;;;4.40;;
4311;SDS011;2169;49.086;9.284;2023-04-25T13:51:11;3.93;;;3.67;;
4311;SDS011;2169;49.086;9.284;2023-04-25T13:53:42;4.63;;;2.93;;
4311;SDS011;2169;49.086;9.284;2023-04-25T13:56:11;5.80;;;2.13;;
4311;SDS011;2169;49.086;9.284;2023-04-25T13:58:38;4.50;;;2.60;;
4311;SDS011;2169;49.086;9.284;2023-04-25T14:01:06;2.73;;;2.53;;
4311;SDS011;2169;49.086;9.284;2023-04-25T14:03:33;4.73;;;3.27;;
4311;SDS011;2169;49.086;9.284;2023-04-25T14:06:00;3.50;;;2.73;;
4311;SDS011;2169;49.086;9.284;2023-04-25T14:08:27;2.53;;;2.37;;
4311;SDS011;2169;49.086;9.284;2023-04-25T14:10:55;3.57;;;2.93;;
4311;SDS011;2169;49.086;9.284;2023-04-25T14:13:22;3.53;;;3.10;;
4311;SDS011;2169;49.086;9.284;2023-04-25T14:15:50;2.77;;;2.57;;
4311;SDS011;2169;49.086;9.284;2023-04-25T14:18:17;2.60;;;2.40;;
4311;SDS011;2169;49.086;9.284;2023-04-25T14:20:44;1.77;;;1.67;;
4311;SDS011;2169;49.086;9.284;2023-04-25T14:23:11;1.67;;;1.57;;
4311;SDS011;2169;49.086;9.284;2023-04-25T14:25:38;2.20;;;2.10;;
4311;SDS011;2169;49.086;9.284;2023-04-25T14:28:08;5.03;;;2.57;;
4311;SDS011;2169;49.086;9.284;2023-04-25T14:30:36;2.13;;;2.03;;
4311;SDS011;2169;49.086;9.284;2023-04-25T14:33:02;8.07;;;3.73;;
4311;SDS011;2169;49.086;9.284;2023-04-25T14:35:30;3.93;;;1.90;;
4311;SDS011;2169;49.086;9.284;2023-04-25T14:37:57;2.47;;;2.27;;
4311;SDS011;2169;49.086;9.284;2023-04-25T14:40:24;3.63;;;2.30;;
4311;SDS011;2169;49.086;9.284;2023-04-25T14:42:51;2.13;;;2.03;;
4311;SDS011;2169;49.086;9.284;2023-04-25T14:45:20;3.17;;;2.93;;
4311;SDS011;2169;49.086;9.284;2023-04-25T14:47:47;2.37;;;2.10;;
4311;SDS011;2169;49.086;9.284;2023-04-25T14:50:14;3.03;;;2.60;;
4311;SDS011;2169;49.086;9.284;2023-04-25T14:52:40;5.63;;;2.83;;
4311;SDS011;2169;49.086;9.284;2023-04-25T14:55:08;7.90;;;3.70;;
4311;SDS011;2169;49.086;9.284;2023-04-25T14:57:35;3.20;;;2.90;;
4311;SDS011;2169;49.086;9.284;2023-04-25T15:00:05;4.73;;;1.73;;
4311;SDS011;2169;49.086;9.284;2023-04-25T15:02:36;2.73;;;2.30;;
4311;SDS011;2169;49.086;9.284;2023-04-25T15:05:03;1.47;;;1.37;;
4311;SDS011;2169;49.086;9.284;2023-04-25T15:07:30;8.57;;;2.10;;
4311;SDS011;2169;49.086;9.284;2023-04-25T15:09:59;2.67;;;2.03;;
4311;SDS011;2169;49.086;9.284;2023-04-25T15:12:26;4.07;;;2.00;;
4311;SDS011;2169;49.086;9.284;2023-04-25T15:14:53;1.40;;;1.40;;
4311;SDS011;2169;49.086;9.284;2023-04-25T15:17:20;2.00;;;1.23;;
4311;SDS011;2169;49.086;9.284;2023-04-25T15:19:48;2.10;;;1.43;;